sensor_id;sensor_type;location;lat;lon;timestamp;P1;durP1;ratioP1;P2;durP2;ratioP2
4466;SDS011;2246;42.664;23.278;2023-04-25T00:00:48;3.38;;;2.63;;
4466;SDS011;2246;42.664;23.278;2023-04-25T00:03:15;6.20;;;3.00;;
4466;SDS011;2246;42.664;23.278;2023-04-25T00:05:43;6.93;;;3.75;;
4466;SDS011;2246;42.664;23.278;2023-04-25T00:08:10;4.05;;;2.75;;
4466;SDS011;2246;42.664;23.278;2023-04-25T00:10:36;3.28;;;2.63;;
4466;SDS011;2246;42.664;23.278;2023-04-25T00:13:02;6.13;;;3.95;;
4466;SDS011;2246;42.664;23.278;2023-04-25T00:15:28;5.43;;;3.45;;
4466;SDS011;2246;42.664;23.278;2023-04-25T00:17:55;6.63;;;3.67;;
4466;SDS011;2246;42.664;23.278;2023-04-25T00:20:22;5.57;;;3.25;;
4466;SDS011;2246;42.664;23.278;2023-04-25T00:22:49;4.90;;;3.72;;
4466;SDS011;2246;42.664;23.278;2023-04-25T00:27:43;4.28;;;3.03;;
4466;SDS011;2246;42.664;23.278;2023-04-25T00:30:09;4.53;;;2.50;;
4466;SDS011;2246;42.664;23.278;2023-04-25T00:32:35;3.40;;;2.70;;
4466;SDS011;2246;42.664;23.278;2023-04-25T00:35:02;7.10;;;2.67;;
4466;SDS011;2246;42.664;23.278;2023-04-25T00:37:28;6.88;;;3.50;;
4466;SDS011;2246;42.664;23.278;2023-04-25T00:39:54;4.55;;;2.83;;
4466;SDS011;2246;42.664;23.278;2023-04-25T00:42:21;3.65;;;2.40;;
4466;SDS011;2246;42.664;23.278;2023-04-25T00:44:47;4.95;;;2.65;;
4466;SDS011;2246;42.664;23.278;2023-04-25T00:47:13;4.60;;;3.10;;
4466;SDS011;2246;42.664;23.278;2023-04-25T00:49:40;5.28;;;3.35;;
4466;SDS011;2246;42.664;23.278;2023-04-25T00:52:07;6.22;;;3.05;;
4466;SDS011;2246;42.664;23.278;2023-04-25T00:54:33;4.53;;;3.33;;
4466;SDS011;2246;42.664;23.278;2023-04-25T00:56:59;3.65;;;3.10;;
4466;SDS011;2246;42.664;23.278;2023-04-25T00:59:25;5.55;;;3.53;;
4466;SDS011;2246;42.664;23.278;2023-04-25T01:01:52;8.20;;;3.70;;
4466;SDS011;2246;42.664;23.278;2023-04-25T01:04:18;5.45;;;3.30;;
4466;SDS011;2246;42.664;23.278;2023-04-25T01:06:45;7.15;;;3.83;;
4466;SDS011;2246;42.664;23.278;2023-04-25T01:09:11;13.68;;;4.38;;
4466;SDS011;2246;42.664;23.278;2023-04-25T01:11:38;4.20;;;3.67;;
4466;SDS011;2246;42.664;23.278;2023-04-25T01:14:05;6.20;;;3.97;;
4466;SDS011;2246;42.664;23.278;2023-04-25T01:16:31;5.75;;;4.75;;
4466;SDS011;2246;42.664;23.278;2023-04-25T01:18:58;7.28;;;5.28;;
4466;SDS011;2246;42.664;23.278;2023-04-25T01:21:24;10.68;;;5.57;;
4466;SDS011;2246;42.664;23.278;2023-04-25T01:23:52;9.13;;;6.45;;
4466;SDS011;2246;42.664;23.278;2023-04-25T01:26:19;9.40;;;5.88;;
4466;SDS011;2246;42.664;23.278;2023-04-25T01:28:47;8.05;;;5.53;;
4466;SDS011;2246;42.664;23.278;2023-04-25T01:31:12;6.40;;;5.05;;
4466;SDS011;2246;42.664;23.278;2023-04-25T01:33:39;10.15;;;6.28;;
4466;SDS011;2246;42.664;23.278;2023-04-25T01:36:05;10.90;;;7.00;;
4466;SDS011;2246;42.664;23.278;2023-04-25T01:38:31;9.20;;;6.45;;
4466;SDS011;2246;42.664;23.278;2023-04-25T01:40:57;11.55;;;7.10;;
4466;SDS011;2246;42.664;23.278;2023-04-25T01:43:24;12.05;;;6.82;;
4466;SDS011;2246;42.664;23.278;2023-04-25T01:45:51;9.57;;;5.80;;
4466;SDS011;2246;42.664;23.278;2023-04-25T01:48:17;8.13;;;5.25;;
4466;SDS011;2246;42.664;23.278;2023-04-25T01:50:43;8.90;;;6.28;;
4466;SDS011;2246;42.664;23.278;2023-04-25T01:53:10;12.73;;;7.82;;
4466;SDS011;2246;42.664;23.278;2023-04-25T01:55:38;12.10;;;7.88;;
4466;SDS011;2246;42.664;23.278;2023-04-25T01:58:04;10.93;;;7.85;;
4466;SDS011;2246;42.664;23.278;2023-04-25T02:00:35;12.43;;;8.40;;
4466;SDS011;2246;42.664;23.278;2023-04-25T02:03:03;13.55;;;8.13;;
4466;SDS011;2246;42.664;23.278;2023-04-25T02:05:34;12.50;;;8.30;;
4466;SDS011;2246;42.664;23.278;2023-04-25T02:08:00;13.18;;;8.02;;
4466;SDS011;2246;42.664;23.278;2023-04-25T02:10:26;11.05;;;6.43;;
4466;SDS011;2246;42.664;23.278;2023-04-25T02:12:52;11.57;;;7.90;;
4466;SDS011;2246;42.664;23.278;2023-04-25T02:15:18;11.80;;;7.70;;
4466;SDS011;2246;42.664;23.278;2023-04-25T02:17:44;16.60;;;8.43;;
4466;SDS011;2246;42.664;23.278;2023-04-25T02:20:10;12.98;;;8.10;;
4466;SDS011;2246;42.664;23.278;2023-04-25T02:22:37;14.13;;;8.30;;
4466;SDS011;2246;42.664;23.278;2023-04-25T02:25:03;11.48;;;8.00;;
4466;SDS011;2246;42.664;23.278;2023-04-25T02:27:30;10.55;;;7.80;;
4466;SDS011;2246;42.664;23.278;2023-04-25T02:29:56;16.13;;;9.93;;
4466;SDS011;2246;42.664;23.278;2023-04-25T02:32:22;17.77;;;9.88;;
4466;SDS011;2246;42.664;23.278;2023-04-25T02:34:49;15.85;;;10.07;;
4466;SDS011;2246;42.664;23.278;2023-04-25T02:37:15;13.52;;;9.55;;
4466;SDS011;2246;42.664;23.278;2023-04-25T02:39:41;17.58;;;9.65;;
4466;SDS011;2246;42.664;23.278;2023-04-25T02:42:07;15.20;;;9.45;;
4466;SDS011;2246;42.664;23.278;2023-04-25T02:44:33;13.60;;;8.45;;
4466;SDS011;2246;42.664;23.278;2023-04-25T02:47:00;11.88;;;7.78;;
4466;SDS011;2246;42.664;23.278;2023-04-25T02:49:26;13.13;;;7.53;;
4466;SDS011;2246;42.664;23.278;2023-04-25T02:51:52;14.30;;;8.73;;
4466;SDS011;2246;42.664;23.278;2023-04-25T02:54:18;16.77;;;9.88;;
4466;SDS011;2246;42.664;23.278;2023-04-25T02:56:44;22.00;;;11.98;;
4466;SDS011;2246;42.664;23.278;2023-04-25T02:59:10;19.85;;;11.20;;
4466;SDS011;2246;42.664;23.278;2023-04-25T03:01:36;18.40;;;11.35;;
4466;SDS011;2246;42.664;23.278;2023-04-25T03:04:02;18.67;;;10.65;;
4466;SDS011;2246;42.664;23.278;2023-04-25T03:06:28;16.20;;;9.43;;
4466;SDS011;2246;42.664;23.278;2023-04-25T03:08:55;14.30;;;7.93;;
4466;SDS011;2246;42.664;23.278;2023-04-25T03:11:21;16.17;;;9.77;;
4466;SDS011;2246;42.664;23.278;2023-04-25T03:13:47;16.30;;;9.15;;
4466;SDS011;2246;42.664;23.278;2023-04-25T03:16:14;13.48;;;8.73;;
4466;SDS011;2246;42.664;23.278;2023-04-25T03:18:40;13.52;;;8.60;;
4466;SDS011;2246;42.664;23.278;2023-04-25T03:21:06;12.90;;;8.07;;
4466;SDS011;2246;42.664;23.278;2023-04-25T03:23:32;12.95;;;7.95;;
4466;SDS011;2246;42.664;23.278;2023-04-25T03:25:58;12.32;;;8.00;;
4466;SDS011;2246;42.664;23.278;2023-04-25T03:28:25;13.85;;;8.13;;
4466;SDS011;2246;42.664;23.278;2023-04-25T03:30:51;17.42;;;8.95;;
4466;SDS011;2246;42.664;23.278;2023-04-25T03:33:19;13.70;;;8.57;;
4466;SDS011;2246;42.664;23.278;2023-04-25T03:35:45;13.13;;;8.32;;
4466;SDS011;2246;42.664;23.278;2023-04-25T03:38:11;15.10;;;9.20;;
4466;SDS011;2246;42.664;23.278;2023-04-25T03:40:37;14.60;;;9.00;;
4466;SDS011;2246;42.664;23.278;2023-04-25T03:43:03;12.82;;;8.18;;
4466;SDS011;2246;42.664;23.278;2023-04-25T03:45:30;12.60;;;8.95;;
4466;SDS011;2246;42.664;23.278;2023-04-25T03:47:56;14.30;;;9.60;;
4466;SDS011;2246;42.664;23.278;2023-04-25T03:50:22;15.43;;;10.00;;
4466;SDS011;2246;42.664;23.278;2023-04-25T03:52:48;13.55;;;9.48;;
4466;SDS011;2246;42.664;23.278;2023-04-25T03:55:14;15.07;;;8.93;;
4466;SDS011;2246;42.664;23.278;2023-04-25T03:57:40;12.52;;;8.25;;
4466;SDS011;2246;42.664;23.278;2023-04-25T04:00:07;14.65;;;8.80;;
4466;SDS011;2246;42.664;23.278;2023-04-25T04:02:33;11.77;;;7.90;;
4466;SDS011;2246;42.664;23.278;2023-04-25T04:05:00;13.90;;;8.85;;
4466;SDS011;2246;42.664;23.278;2023-04-25T04:07:26;12.73;;;8.10;;
4466;SDS011;2246;42.664;23.278;2023-04-25T04:09:52;13.32;;;8.65;;
4466;SDS011;2246;42.664;23.278;2023-04-25T04:12:18;12.50;;;7.57;;
4466;SDS011;2246;42.664;23.278;2023-04-25T04:14:44;13.55;;;8.35;;
4466;SDS011;2246;42.664;23.278;2023-04-25T04:17:10;13.45;;;8.00;;
4466;SDS011;2246;42.664;23.278;2023-04-25T04:19:36;10.68;;;6.75;;
4466;SDS011;2246;42.664;23.278;2023-04-25T04:22:02;13.55;;;8.10;;
4466;SDS011;2246;42.664;23.278;2023-04-25T04:24:28;15.60;;;8.45;;
4466;SDS011;2246;42.664;23.278;2023-04-25T04:26:54;12.73;;;7.20;;
4466;SDS011;2246;42.664;23.278;2023-04-25T04:29:21;8.05;;;5.70;;
4466;SDS011;2246;42.664;23.278;2023-04-25T04:31:51;11.73;;;6.90;;
4466;SDS011;2246;42.664;23.278;2023-04-25T04:34:17;10.32;;;6.05;;
4466;SDS011;2246;42.664;23.278;2023-04-25T04:36:44;7.82;;;6.28;;
4466;SDS011;2246;42.664;23.278;2023-04-25T04:39:11;8.95;;;5.88;;
4466;SDS011;2246;42.664;23.278;2023-04-25T04:41:37;9.88;;;6.32;;
4466;SDS011;2246;42.664;23.278;2023-04-25T04:44:05;10.00;;;6.47;;
4466;SDS011;2246;42.664;23.278;2023-04-25T04:46:35;9.68;;;6.47;;
4466;SDS011;2246;42.664;23.278;2023-04-25T04:49:07;13.02;;;6.82;;
4466;SDS011;2246;42.664;23.278;2023-04-25T04:51:32;10.57;;;7.32;;
4466;SDS011;2246;42.664;23.278;2023-04-25T04:53:58;10.50;;;6.22;;
4466;SDS011;2246;42.664;23.278;2023-04-25T04:56:27;10.95;;;6.97;;
4466;SDS011;2246;42.664;23.278;2023-04-25T04:58:54;14.60;;;8.30;;
4466;SDS011;2246;42.664;23.278;2023-04-25T05:01:20;9.68;;;6.60;;
4466;SDS011;2246;42.664;23.278;2023-04-25T05:03:47;9.10;;;6.50;;
4466;SDS011;2246;42.664;23.278;2023-04-25T05:06:13;11.10;;;7.70;;
4466;SDS011;2246;42.664;23.278;2023-04-25T05:08:39;9.95;;;7.05;;
4466;SDS011;2246;42.664;23.278;2023-04-25T05:11:05;12.98;;;8.02;;
4466;SDS011;2246;42.664;23.278;2023-04-25T05:13:31;9.85;;;7.00;;
4466;SDS011;2246;42.664;23.278;2023-04-25T05:15:57;9.80;;;6.03;;
4466;SDS011;2246;42.664;23.278;2023-04-25T05:18:23;13.48;;;7.03;;
4466;SDS011;2246;42.664;23.278;2023-04-25T05:20:49;10.82;;;7.00;;
4466;SDS011;2246;42.664;23.278;2023-04-25T05:23:15;12.15;;;7.85;;
4466;SDS011;2246;42.664;23.278;2023-04-25T05:25:41;13.48;;;8.18;;
4466;SDS011;2246;42.664;23.278;2023-04-25T05:28:07;13.82;;;8.43;;
4466;SDS011;2246;42.664;23.278;2023-04-25T05:30:34;10.90;;;7.32;;
4466;SDS011;2246;42.664;23.278;2023-04-25T05:33:00;11.38;;;8.23;;
4466;SDS011;2246;42.664;23.278;2023-04-25T05:35:26;13.27;;;8.85;;
4466;SDS011;2246;42.664;23.278;2023-04-25T05:37:52;12.40;;;7.72;;
4466;SDS011;2246;42.664;23.278;2023-04-25T05:40:18;12.43;;;8.05;;
4466;SDS011;2246;42.664;23.278;2023-04-25T05:42:44;11.93;;;7.95;;
4466;SDS011;2246;42.664;23.278;2023-04-25T05:45:11;12.95;;;8.60;;
4466;SDS011;2246;42.664;23.278;2023-04-25T05:47:37;12.80;;;8.57;;
4466;SDS011;2246;42.664;23.278;2023-04-25T05:50:04;12.93;;;8.68;;
4466;SDS011;2246;42.664;23.278;2023-04-25T05:52:30;13.25;;;8.73;;
4466;SDS011;2246;42.664;23.278;2023-04-25T05:54:56;17.27;;;7.35;;
4466;SDS011;2246;42.664;23.278;2023-04-25T05:57:26;11.73;;;8.20;;
4466;SDS011;2246;42.664;23.278;2023-04-25T05:59:52;13.70;;;8.82;;
4466;SDS011;2246;42.664;23.278;2023-04-25T06:02:21;11.63;;;8.57;;
4466;SDS011;2246;42.664;23.278;2023-04-25T06:04:49;13.18;;;8.32;;
4466;SDS011;2246;42.664;23.278;2023-04-25T06:07:14;11.63;;;8.10;;
4466;SDS011;2246;42.664;23.278;2023-04-25T06:09:41;14.05;;;8.98;;
4466;SDS011;2246;42.664;23.278;2023-04-25T06:12:07;13.88;;;9.27;;
4466;SDS011;2246;42.664;23.278;2023-04-25T06:14:33;13.25;;;8.05;;
4466;SDS011;2246;42.664;23.278;2023-04-25T06:16:59;12.25;;;8.27;;
4466;SDS011;2246;42.664;23.278;2023-04-25T06:19:31;11.30;;;8.05;;
4466;SDS011;2246;42.664;23.278;2023-04-25T06:21:57;11.60;;;8.15;;
4466;SDS011;2246;42.664;23.278;2023-04-25T06:24:23;13.27;;;8.63;;
4466;SDS011;2246;42.664;23.278;2023-04-25T06:26:49;14.80;;;8.65;;
4466;SDS011;2246;42.664;23.278;2023-04-25T06:29:15;15.45;;;9.55;;
4466;SDS011;2246;42.664;23.278;2023-04-25T06:31:41;15.65;;;9.63;;
4466;SDS011;2246;42.664;23.278;2023-04-25T06:34:08;18.02;;;8.60;;
4466;SDS011;2246;42.664;23.278;2023-04-25T06:36:34;16.33;;;10.55;;
4466;SDS011;2246;42.664;23.278;2023-04-25T06:39:00;15.70;;;9.23;;
4466;SDS011;2246;42.664;23.278;2023-04-25T06:41:26;13.82;;;8.93;;
4466;SDS011;2246;42.664;23.278;2023-04-25T06:43:52;10.70;;;7.65;;
4466;SDS011;2246;42.664;23.278;2023-04-25T06:46:18;12.50;;;8.18;;
4466;SDS011;2246;42.664;23.278;2023-04-25T06:48:44;12.63;;;7.55;;
4466;SDS011;2246;42.664;23.278;2023-04-25T06:51:10;57.08;;;23.77;;
4466;SDS011;2246;42.664;23.278;2023-04-25T06:53:38;15.50;;;8.95;;
4466;SDS011;2246;42.664;23.278;2023-04-25T06:56:04;12.15;;;7.30;;
4466;SDS011;2246;42.664;23.278;2023-04-25T06:58:30;13.80;;;7.82;;
4466;SDS011;2246;42.664;23.278;2023-04-25T07:00:56;12.65;;;7.30;;
4466;SDS011;2246;42.664;23.278;2023-04-25T07:03:22;9.38;;;6.88;;
4466;SDS011;2246;42.664;23.278;2023-04-25T07:05:49;11.40;;;7.05;;
4466;SDS011;2246;42.664;23.278;2023-04-25T07:08:15;13.10;;;8.07;;
4466;SDS011;2246;42.664;23.278;2023-04-25T07:10:41;14.43;;;8.48;;
4466;SDS011;2246;42.664;23.278;2023-04-25T07:13:08;10.75;;;7.57;;
4466;SDS011;2246;42.664;23.278;2023-04-25T07:15:34;12.80;;;7.47;;
4466;SDS011;2246;42.664;23.278;2023-04-25T07:18:00;17.92;;;7.55;;
4466;SDS011;2246;42.664;23.278;2023-04-25T07:20:26;15.18;;;8.07;;
4466;SDS011;2246;42.664;23.278;2023-04-25T07:22:52;15.85;;;8.45;;
4466;SDS011;2246;42.664;23.278;2023-04-25T07:25:19;12.65;;;7.90;;
4466;SDS011;2246;42.664;23.278;2023-04-25T07:27:45;15.88;;;8.00;;
4466;SDS011;2246;42.664;23.278;2023-04-25T07:30:11;12.82;;;8.50;;
4466;SDS011;2246;42.664;23.278;2023-04-25T07:32:38;11.68;;;7.45;;
4466;SDS011;2246;42.664;23.278;2023-04-25T07:35:04;11.73;;;7.13;;
4466;SDS011;2246;42.664;23.278;2023-04-25T07:37:32;11.18;;;7.07;;
4466;SDS011;2246;42.664;23.278;2023-04-25T07:39:58;10.63;;;6.80;;
4466;SDS011;2246;42.664;23.278;2023-04-25T07:42:24;14.30;;;7.28;;
4466;SDS011;2246;42.664;23.278;2023-04-25T07:44:50;12.02;;;6.25;;
4466;SDS011;2246;42.664;23.278;2023-04-25T07:47:16;12.90;;;6.53;;
4466;SDS011;2246;42.664;23.278;2023-04-25T07:49:44;10.82;;;6.53;;
4466;SDS011;2246;42.664;23.278;2023-04-25T07:52:10;9.40;;;6.47;;
4466;SDS011;2246;42.664;23.278;2023-04-25T07:54:36;8.93;;;6.32;;
4466;SDS011;2246;42.664;23.278;2023-04-25T07:57:02;17.13;;;6.55;;
4466;SDS011;2246;42.664;23.278;2023-04-25T07:59:29;12.98;;;8.35;;
4466;SDS011;2246;42.664;23.278;2023-04-25T08:01:55;16.25;;;7.38;;
4466;SDS011;2246;42.664;23.278;2023-04-25T08:04:22;13.70;;;6.47;;
4466;SDS011;2246;42.664;23.278;2023-04-25T08:06:48;10.10;;;6.20;;
4466;SDS011;2246;42.664;23.278;2023-04-25T08:09:15;13.32;;;6.18;;
4466;SDS011;2246;42.664;23.278;2023-04-25T08:11:41;13.23;;;6.63;;
4466;SDS011;2246;42.664;23.278;2023-04-25T08:14:07;10.52;;;6.00;;
4466;SDS011;2246;42.664;23.278;2023-04-25T08:16:33;10.55;;;5.53;;
4466;SDS011;2246;42.664;23.278;2023-04-25T08:19:00;11.73;;;5.57;;
4466;SDS011;2246;42.664;23.278;2023-04-25T08:21:26;10.10;;;5.40;;
4466;SDS011;2246;42.664;23.278;2023-04-25T08:23:52;15.52;;;5.65;;
4466;SDS011;2246;42.664;23.278;2023-04-25T08:26:18;11.23;;;5.20;;
4466;SDS011;2246;42.664;23.278;2023-04-25T08:28:45;12.15;;;5.55;;
4466;SDS011;2246;42.664;23.278;2023-04-25T08:31:11;9.82;;;5.50;;
4466;SDS011;2246;42.664;23.278;2023-04-25T08:33:37;10.15;;;5.85;;
4466;SDS011;2246;42.664;23.278;2023-04-25T08:36:03;6.03;;;4.38;;
4466;SDS011;2246;42.664;23.278;2023-04-25T08:38:30;5.72;;;3.28;;
4466;SDS011;2246;42.664;23.278;2023-04-25T08:40:56;4.53;;;2.35;;
4466;SDS011;2246;42.664;23.278;2023-04-25T08:43:23;6.00;;;1.92;;
4466;SDS011;2246;42.664;23.278;2023-04-25T08:45:49;3.22;;;2.20;;
4466;SDS011;2246;42.664;23.278;2023-04-25T08:48:16;5.40;;;2.53;;
4466;SDS011;2246;42.664;23.278;2023-04-25T08:50:52;9.05;;;2.72;;
4466;SDS011;2246;42.664;23.278;2023-04-25T08:53:25;3.90;;;2.10;;
4466;SDS011;2246;42.664;23.278;2023-04-25T08:55:52;2.88;;;1.95;;
4466;SDS011;2246;42.664;23.278;2023-04-25T08:58:19;6.10;;;3.30;;
4466;SDS011;2246;42.664;23.278;2023-04-25T09:00:46;6.07;;;3.35;;
4466;SDS011;2246;42.664;23.278;2023-04-25T09:03:12;5.03;;;2.77;;
4466;SDS011;2246;42.664;23.278;2023-04-25T09:05:39;7.95;;;2.70;;
4466;SDS011;2246;42.664;23.278;2023-04-25T09:08:05;7.03;;;2.95;;
4466;SDS011;2246;42.664;23.278;2023-04-25T09:10:32;7.40;;;2.85;;
4466;SDS011;2246;42.664;23.278;2023-04-25T09:13:04;5.38;;;2.50;;
4466;SDS011;2246;42.664;23.278;2023-04-25T09:15:31;4.70;;;2.40;;
4466;SDS011;2246;42.664;23.278;2023-04-25T09:18:00;6.70;;;2.80;;
4466;SDS011;2246;42.664;23.278;2023-04-25T09:20:26;4.97;;;2.30;;
4466;SDS011;2246;42.664;23.278;2023-04-25T09:23:03;8.63;;;2.15;;
4466;SDS011;2246;42.664;23.278;2023-04-25T09:25:39;3.15;;;1.45;;
4466;SDS011;2246;42.664;23.278;2023-04-25T09:28:05;1.13;;;1.05;;
4466;SDS011;2246;42.664;23.278;2023-04-25T09:30:35;2.50;;;1.00;;
4466;SDS011;2246;42.664;23.278;2023-04-25T09:33:08;4.03;;;1.17;;
4466;SDS011;2246;42.664;23.278;2023-04-25T09:35:37;3.60;;;1.30;;
4466;SDS011;2246;42.664;23.278;2023-04-25T09:38:07;3.00;;;1.45;;
4466;SDS011;2246;42.664;23.278;2023-04-25T09:40:33;2.03;;;1.40;;
4466;SDS011;2246;42.664;23.278;2023-04-25T09:42:59;3.08;;;1.48;;
4466;SDS011;2246;42.664;23.278;2023-04-25T09:45:25;1.88;;;1.25;;
4466;SDS011;2246;42.664;23.278;2023-04-25T09:47:55;1.17;;;0.85;;
4466;SDS011;2246;42.664;23.278;2023-04-25T09:50:23;3.63;;;1.00;;
4466;SDS011;2246;42.664;23.278;2023-04-25T09:53:02;1.47;;;0.90;;
4466;SDS011;2246;42.664;23.278;2023-04-25T09:55:29;2.63;;;1.13;;
4466;SDS011;2246;42.664;23.278;2023-04-25T09:57:55;1.20;;;0.90;;
4466;SDS011;2246;42.664;23.278;2023-04-25T10:00:24;0.60;;;0.60;;
4466;SDS011;2246;42.664;23.278;2023-04-25T10:02:51;2.33;;;1.83;;
4466;SDS011;2246;42.664;23.278;2023-04-25T10:05:18;6.97;;;2.13;;
4466;SDS011;2246;42.664;23.278;2023-04-25T10:07:44;3.85;;;1.90;;
4466;SDS011;2246;42.664;23.278;2023-04-25T10:10:11;4.85;;;1.88;;
4466;SDS011;2246;42.664;23.278;2023-04-25T10:12:38;1.42;;;0.90;;
4466;SDS011;2246;42.664;23.278;2023-04-25T10:15:05;1.50;;;0.80;;
4466;SDS011;2246;42.664;23.278;2023-04-25T10:17:33;1.00;;;0.80;;
4466;SDS011;2246;42.664;23.278;2023-04-25T10:20:01;5.78;;;1.00;;
4466;SDS011;2246;42.664;23.278;2023-04-25T10:22:34;3.03;;;1.17;;
4466;SDS011;2246;42.664;23.278;2023-04-25T10:25:01;1.95;;;1.30;;
4466;SDS011;2246;42.664;23.278;2023-04-25T10:27:30;2.15;;;1.10;;
4466;SDS011;2246;42.664;23.278;2023-04-25T10:30:03;1.95;;;1.05;;
4466;SDS011;2246;42.664;23.278;2023-04-25T10:32:33;6.53;;;1.27;;
4466;SDS011;2246;42.664;23.278;2023-04-25T10:35:09;2.63;;;1.00;;
4466;SDS011;2246;42.664;23.278;2023-04-25T10:37:35;2.05;;;1.13;;
4466;SDS011;2246;42.664;23.278;2023-04-25T10:40:08;0.80;;;0.80;;
4466;SDS011;2246;42.664;23.278;2023-04-25T10:42:35;1.02;;;0.90;;
4466;SDS011;2246;42.664;23.278;2023-04-25T10:45:01;1.63;;;0.90;;
4466;SDS011;2246;42.664;23.278;2023-04-25T10:47:38;4.35;;;0.85;;
4466;SDS011;2246;42.664;23.278;2023-04-25T10:50:09;1.25;;;0.70;;
4466;SDS011;2246;42.664;23.278;2023-04-25T10:52:36;5.25;;;1.17;;
4466;SDS011;2246;42.664;23.278;2023-04-25T10:55:07;0.85;;;0.70;;
4466;SDS011;2246;42.664;23.278;2023-04-25T10:57:38;3.75;;;0.82;;
4466;SDS011;2246;42.664;23.278;2023-04-25T11:00:08;3.72;;;0.90;;
4466;SDS011;2246;42.664;23.278;2023-04-25T11:02:51;2.08;;;0.80;;
4466;SDS011;2246;42.664;23.278;2023-04-25T11:05:34;6.38;;;0.90;;
4466;SDS011;2246;42.664;23.278;2023-04-25T11:08:00;2.30;;;1.10;;
4466;SDS011;2246;42.664;23.278;2023-04-25T11:10:29;3.58;;;0.88;;
4466;SDS011;2246;42.664;23.278;2023-04-25T11:12:56;1.58;;;0.88;;
4466;SDS011;2246;42.664;23.278;2023-04-25T11:15:22;1.50;;;0.60;;
4466;SDS011;2246;42.664;23.278;2023-04-25T11:17:50;1.45;;;0.80;;
4466;SDS011;2246;42.664;23.278;2023-04-25T11:20:16;6.43;;;0.90;;
4466;SDS011;2246;42.664;23.278;2023-04-25T11:22:44;2.65;;;1.48;;
4466;SDS011;2246;42.664;23.278;2023-04-25T11:25:11;5.85;;;1.00;;
4466;SDS011;2246;42.664;23.278;2023-04-25T11:30:16;2.47;;;1.10;;
4466;SDS011;2246;42.664;23.278;2023-04-25T11:32:42;2.30;;;1.02;;
4466;SDS011;2246;42.664;23.278;2023-04-25T11:35:09;3.35;;;0.98;;
4466;SDS011;2246;42.664;23.278;2023-04-25T11:37:36;3.13;;;1.13;;
4466;SDS011;2246;42.664;23.278;2023-04-25T11:40:02;2.47;;;1.40;;
4466;SDS011;2246;42.664;23.278;2023-04-25T11:42:31;4.72;;;1.55;;
4466;SDS011;2246;42.664;23.278;2023-04-25T11:44:58;6.28;;;1.00;;
4466;SDS011;2246;42.664;23.278;2023-04-25T11:47:28;1.42;;;1.10;;
4466;SDS011;2246;42.664;23.278;2023-04-25T11:49:55;0.70;;;0.63;;
4466;SDS011;2246;42.664;23.278;2023-04-25T11:52:21;3.15;;;0.70;;
4466;SDS011;2246;42.664;23.278;2023-04-25T11:54:47;4.32;;;0.80;;
4466;SDS011;2246;42.664;23.278;2023-04-25T11:57:13;1.38;;;0.90;;
4466;SDS011;2246;42.664;23.278;2023-04-25T11:59:39;3.03;;;1.13;;
4466;SDS011;2246;42.664;23.278;2023-04-25T12:02:05;1.88;;;1.00;;
4466;SDS011;2246;42.664;23.278;2023-04-25T12:04:32;1.70;;;1.23;;
4466;SDS011;2246;42.664;23.278;2023-04-25T12:06:58;5.80;;;1.23;;
4466;SDS011;2246;42.664;23.278;2023-04-25T12:09:32;4.88;;;1.42;;
4466;SDS011;2246;42.664;23.278;2023-04-25T12:11:59;2.97;;;0.90;;
4466;SDS011;2246;42.664;23.278;2023-04-25T12:14:34;1.92;;;1.08;;
4466;SDS011;2246;42.664;23.278;2023-04-25T12:17:01;2.30;;;1.20;;
4466;SDS011;2246;42.664;23.278;2023-04-25T12:19:37;2.80;;;1.50;;
4466;SDS011;2246;42.664;23.278;2023-04-25T12:22:18;1.65;;;0.95;;
4466;SDS011;2246;42.664;23.278;2023-04-25T12:24:45;2.00;;;1.05;;
4466;SDS011;2246;42.664;23.278;2023-04-25T12:27:13;7.03;;;2.42;;
4466;SDS011;2246;42.664;23.278;2023-04-25T12:29:49;0.98;;;0.88;;
4466;SDS011;2246;42.664;23.278;2023-04-25T12:32:16;3.15;;;0.68;;
4466;SDS011;2246;42.664;23.278;2023-04-25T12:34:42;3.35;;;0.70;;
4466;SDS011;2246;42.664;23.278;2023-04-25T12:37:08;5.13;;;0.93;;
4466;SDS011;2246;42.664;23.278;2023-04-25T12:39:35;2.05;;;0.82;;
4466;SDS011;2246;42.664;23.278;2023-04-25T12:42:01;1.50;;;1.00;;
4466;SDS011;2246;42.664;23.278;2023-04-25T12:44:28;7.15;;;0.93;;
4466;SDS011;2246;42.664;23.278;2023-04-25T12:46:54;3.05;;;1.08;;
4466;SDS011;2246;42.664;23.278;2023-04-25T12:49:20;2.20;;;0.80;;
4466;SDS011;2246;42.664;23.278;2023-04-25T12:51:47;1.35;;;1.00;;
4466;SDS011;2246;42.664;23.278;2023-04-25T12:54:13;1.50;;;0.80;;
4466;SDS011;2246;42.664;23.278;2023-04-25T12:56:39;1.27;;;0.80;;
4466;SDS011;2246;42.664;23.278;2023-04-25T12:59:06;2.00;;;0.70;;
4466;SDS011;2246;42.664;23.278;2023-04-25T13:01:32;1.83;;;1.10;;
4466;SDS011;2246;42.664;23.278;2023-04-25T13:03:59;2.35;;;1.48;;
4466;SDS011;2246;42.664;23.278;2023-04-25T13:06:25;6.75;;;1.45;;
4466;SDS011;2246;42.664;23.278;2023-04-25T13:08:51;5.18;;;1.90;;
4466;SDS011;2246;42.664;23.278;2023-04-25T13:11:17;6.85;;;1.40;;
4466;SDS011;2246;42.664;23.278;2023-04-25T13:13:44;6.53;;;1.50;;
4466;SDS011;2246;42.664;23.278;2023-04-25T13:16:10;5.20;;;1.60;;
4466;SDS011;2246;42.664;23.278;2023-04-25T13:18:38;3.67;;;1.85;;
4466;SDS011;2246;42.664;23.278;2023-04-25T13:21:04;7.40;;;2.17;;
4466;SDS011;2246;42.664;23.278;2023-04-25T13:23:30;2.80;;;1.50;;
4466;SDS011;2246;42.664;23.278;2023-04-25T13:25:57;3.08;;;1.52;;
4466;SDS011;2246;42.664;23.278;2023-04-25T13:28:23;6.38;;;1.90;;
4466;SDS011;2246;42.664;23.278;2023-04-25T13:30:50;6.70;;;2.05;;
4466;SDS011;2246;42.664;23.278;2023-04-25T13:33:16;4.32;;;1.98;;
4466;SDS011;2246;42.664;23.278;2023-04-25T13:35:42;3.63;;;1.75;;
4466;SDS011;2246;42.664;23.278;2023-04-25T13:38:11;7.10;;;1.77;;
4466;SDS011;2246;42.664;23.278;2023-04-25T13:40:38;4.78;;;1.80;;
4466;SDS011;2246;42.664;23.278;2023-04-25T13:43:04;4.95;;;2.15;;
4466;SDS011;2246;42.664;23.278;2023-04-25T13:45:31;2.00;;;1.50;;
4466;SDS011;2246;42.664;23.278;2023-04-25T13:47:57;2.20;;;1.35;;
4466;SDS011;2246;42.664;23.278;2023-04-25T13:50:23;4.40;;;2.13;;
4466;SDS011;2246;42.664;23.278;2023-04-25T13:52:50;2.47;;;1.50;;
4466;SDS011;2246;42.664;23.278;2023-04-25T13:55:16;3.30;;;1.17;;
4466;SDS011;2246;42.664;23.278;2023-04-25T13:57:42;3.15;;;1.30;;
4466;SDS011;2246;42.664;23.278;2023-04-25T14:00:08;1.52;;;1.10;;
4466;SDS011;2246;42.664;23.278;2023-04-25T14:02:35;4.43;;;1.40;;
4466;SDS011;2246;42.664;23.278;2023-04-25T14:05:01;4.07;;;1.30;;
4466;SDS011;2246;42.664;23.278;2023-04-25T14:07:28;2.55;;;1.02;;
4466;SDS011;2246;42.664;23.278;2023-04-25T14:09:54;2.08;;;1.17;;
4466;SDS011;2246;42.664;23.278;2023-04-25T14:14:48;1.40;;;1.10;;
4466;SDS011;2246;42.664;23.278;2023-04-25T14:17:14;2.15;;;1.10;;
4466;SDS011;2246;42.664;23.278;2023-04-25T14:19:40;1.63;;;1.13;;
4466;SDS011;2246;42.664;23.278;2023-04-25T14:22:10;1.83;;;0.90;;
4466;SDS011;2246;42.664;23.278;2023-04-25T14:24:36;1.55;;;1.00;;
4466;SDS011;2246;42.664;23.278;2023-04-25T14:27:03;1.65;;;1.00;;
4466;SDS011;2246;42.664;23.278;2023-04-25T14:29:29;1.88;;;1.00;;
4466;SDS011;2246;42.664;23.278;2023-04-25T14:31:55;2.13;;;1.25;;
4466;SDS011;2246;42.664;23.278;2023-04-25T14:34:22;4.35;;;0.90;;
4466;SDS011;2246;42.664;23.278;2023-04-25T14:36:48;2.17;;;0.90;;
4466;SDS011;2246;42.664;23.278;2023-04-25T14:39:15;5.15;;;3.25;;
4466;SDS011;2246;42.664;23.278;2023-04-25T14:41:41;10.40;;;3.60;;
4466;SDS011;2246;42.664;23.278;2023-04-25T14:44:07;8.10;;;4.25;;
4466;SDS011;2246;42.664;23.278;2023-04-25T14:46:34;2.85;;;1.40;;
4466;SDS011;2246;42.664;23.278;2023-04-25T14:49:00;3.63;;;2.03;;
4466;SDS011;2246;42.664;23.278;2023-04-25T14:51:26;4.13;;;1.65;;
4466;SDS011;2246;42.664;23.278;2023-04-25T14:53:52;5.15;;;2.20;;
4466;SDS011;2246;42.664;23.278;2023-04-25T14:56:18;4.32;;;1.60;;
4466;SDS011;2246;42.664;23.278;2023-04-25T14:58:45;3.75;;;1.92;;
4466;SDS011;2246;42.664;23.278;2023-04-25T15:01:11;4.43;;;1.73;;